sensor_id;sensor_type;location;lat;lon;timestamp;pressure;altitude;pressure_sealevel;temperature;humidity
47260;BME280;32999;52.412;4.890;2022-10-16T00:00:52;100754.97;;;14.70;100.00
47260;BME280;32999;52.412;4.890;2022-10-16T00:05:58;100787.56;;;14.86;100.00
47260;BME280;32999;52.412;4.890;2022-10-16T00:11:02;100758.91;;;14.67;100.00
47260;BME280;32999;52.412;4.890;2022-10-16T00:16:06;100856.03;;;15.35;100.00
47260;BME280;32999;52.412;4.890;2022-10-16T00:21:10;100847.31;;;15.08;100.00
47260;BME280;32999;52.412;4.890;2022-10-16T00:26:15;100854.81;;;14.93;100.00
47260;BME280;32999;52.412;4.890;2022-10-16T00:31:20;100766.06;;;14.42;100.00
47260;BME280;32999;52.412;4.890;2022-10-16T00:36:24;100855.47;;;14.88;100.00
47260;BME280;32999;52.412;4.890;2022-10-16T00:41:27;100829.44;;;14.82;100.00
47260;BME280;32999;52.412;4.890;2022-10-16T00:46:35;100799.97;;;14.56;100.00
47260;BME280;32999;52.412;4.890;2022-10-16T00:51:39;100823.88;;;14.71;100.00
47260;BME280;32999;52.412;4.890;2022-10-16T00:56:43;100812.88;;;14.79;100.00
47260;BME280;32999;52.412;4.890;2022-10-16T01:01:47;100844.09;;;14.86;100.00
47260;BME280;32999;52.412;4.890;2022-10-16T01:06:56;100760.31;;;14.32;100.00
47260;BME280;32999;52.412;4.890;2022-10-16T01:12:08;100855.50;;;14.82;100.00
47260;BME280;32999;52.412;4.890;2022-10-16T01:17:16;100858.97;;;14.95;100.00
47260;BME280;32999;52.412;4.890;2022-10-16T01:22:25;100853.56;;;14.95;100.00
47260;BME280;32999;52.412;4.890;2022-10-16T01:27:35;100850.69;;;14.90;100.00
47260;BME280;32999;52.412;4.890;2022-10-16T01:32:40;100848.28;;;14.76;100.00
47260;BME280;32999;52.412;4.890;2022-10-16T01:37:47;100796.84;;;14.59;100.00
47260;BME280;32999;52.412;4.890;2022-10-16T01:42:54;100866.91;;;14.77;100.00
47260;BME280;32999;52.412;4.890;2022-10-16T01:47:58;100852.38;;;14.85;100.00
47260;BME280;32999;52.412;4.890;2022-10-16T01:53:05;100842.81;;;14.95;100.00
47260;BME280;32999;52.412;4.890;2022-10-16T01:58:11;100850.34;;;14.80;100.00
47260;BME280;32999;52.412;4.890;2022-10-16T02:03:17;100822.31;;;14.56;100.00
47260;BME280;32999;52.412;4.890;2022-10-16T02:08:20;100860.38;;;15.05;100.00
47260;BME280;32999;52.412;4.890;2022-10-16T02:13:29;100867.41;;;15.06;100.00
47260;BME280;32999;52.412;4.890;2022-10-16T02:18:32;100871.38;;;14.96;100.00
47260;BME280;32999;52.412;4.890;2022-10-16T02:23:38;100787.22;;;14.25;100.00
47260;BME280;32999;52.412;4.890;2022-10-16T02:28:49;100865.50;;;14.61;100.00
47260;BME280;32999;52.412;4.890;2022-10-16T02:33:54;100890.97;;;14.59;100.00
47260;BME280;32999;52.412;4.890;2022-10-16T02:39:00;100895.28;;;14.60;100.00
47260;BME280;32999;52.412;4.890;2022-10-16T02:44:05;100893.88;;;14.51;100.00
47260;BME280;32999;52.412;4.890;2022-10-16T02:49:07;100904.25;;;14.47;100.00
47260;BME280;32999;52.412;4.890;2022-10-16T02:54:09;100908.38;;;14.50;100.00
47260;BME280;32999;52.412;4.890;2022-10-16T02:59:12;100871.41;;;13.92;100.00
47260;BME280;32999;52.412;4.890;2022-10-16T03:04:14;100854.47;;;13.85;100.00
47260;BME280;32999;52.412;4.890;2022-10-16T03:09:16;100790.63;;;13.48;100.00
47260;BME280;32999;52.412;4.890;2022-10-16T03:14:19;100910.66;;;14.26;100.00
47260;BME280;32999;52.412;4.890;2022-10-16T03:19:21;100796.19;;;13.46;100.00
47260;BME280;32999;52.412;4.890;2022-10-16T03:24:23;100933.00;;;14.20;100.00
47260;BME280;32999;52.412;4.890;2022-10-16T03:29:26;100852.78;;;13.91;100.00
47260;BME280;32999;52.412;4.890;2022-10-16T03:34:29;100917.88;;;14.39;100.00
47260;BME280;32999;52.412;4.890;2022-10-16T03:39:31;100915.00;;;14.47;100.00
47260;BME280;32999;52.412;4.890;2022-10-16T03:44:34;100829.03;;;13.88;100.00
47260;BME280;32999;52.412;4.890;2022-10-16T03:49:36;100891.00;;;14.13;100.00
47260;BME280;32999;52.412;4.890;2022-10-16T03:54:37;100933.16;;;14.39;100.00
47260;BME280;32999;52.412;4.890;2022-10-16T03:59:41;100883.19;;;14.05;100.00
47260;BME280;32999;52.412;4.890;2022-10-16T04:04:43;100950.56;;;14.43;100.00
47260;BME280;32999;52.412;4.890;2022-10-16T04:09:46;100948.09;;;14.35;100.00
47260;BME280;32999;52.412;4.890;2022-10-16T04:14:49;100982.59;;;14.38;100.00
47260;BME280;32999;52.412;4.890;2022-10-16T04:19:51;100959.69;;;14.28;100.00
47260;BME280;32999;52.412;4.890;2022-10-16T04:24:52;100884.44;;;13.76;100.00
47260;BME280;32999;52.412;4.890;2022-10-16T04:29:55;100870.38;;;13.80;100.00
47260;BME280;32999;52.412;4.890;2022-10-16T04:34:57;100829.03;;;13.48;100.00
47260;BME280;32999;52.412;4.890;2022-10-16T04:39:59;100959.22;;;14.38;100.00
47260;BME280;32999;52.412;4.890;2022-10-16T04:45:04;100932.78;;;14.02;100.00
47260;BME280;32999;52.412;4.890;2022-10-16T04:50:09;100980.34;;;14.28;100.00
47260;BME280;32999;52.412;4.890;2022-10-16T04:55:15;100988.81;;;14.38;100.00
47260;BME280;32999;52.412;4.890;2022-10-16T05:00:21;101007.66;;;14.45;100.00
47260;BME280;32999;52.412;4.890;2022-10-16T05:05:23;100991.09;;;14.02;100.00
47260;BME280;32999;52.412;4.890;2022-10-16T05:10:25;101018.16;;;14.13;100.00
47260;BME280;32999;52.412;4.890;2022-10-16T05:15:28;100973.47;;;13.86;100.00
47260;BME280;32999;52.412;4.890;2022-10-16T05:20:29;100942.91;;;13.74;100.00
47260;BME280;32999;52.412;4.890;2022-10-16T05:25:31;101029.94;;;14.12;100.00
47260;BME280;32999;52.412;4.890;2022-10-16T05:30:37;101041.94;;;14.16;100.00
47260;BME280;32999;52.412;4.890;2022-10-16T05:35:38;101064.69;;;14.07;100.00
47260;BME280;32999;52.412;4.890;2022-10-16T05:40:40;101000.47;;;13.51;100.00
47260;BME280;32999;52.412;4.890;2022-10-16T05:45:43;101065.06;;;13.91;100.00
47260;BME280;32999;52.412;4.890;2022-10-16T05:50:45;101070.19;;;13.86;100.00
47260;BME280;32999;52.412;4.890;2022-10-16T05:55:51;101067.47;;;13.73;100.00
47260;BME280;32999;52.412;4.890;2022-10-16T06:00:56;101064.38;;;13.69;100.00
47260;BME280;32999;52.412;4.890;2022-10-16T06:05:57;101077.22;;;13.80;100.00
47260;BME280;32999;52.412;4.890;2022-10-16T06:11:03;101080.06;;;13.66;100.00
47260;BME280;32999;52.412;4.890;2022-10-16T06:16:08;101090.00;;;13.72;100.00
47260;BME280;32999;52.412;4.890;2022-10-16T06:21:12;101014.78;;;13.17;100.00
47260;BME280;32999;52.412;4.890;2022-10-16T06:26:16;100960.66;;;13.14;100.00
47260;BME280;32999;52.412;4.890;2022-10-16T06:31:20;101058.78;;;13.71;100.00
47260;BME280;32999;52.412;4.890;2022-10-16T06:36:22;101113.41;;;13.91;100.00
47260;BME280;32999;52.412;4.890;2022-10-16T06:41:24;100985.31;;;13.24;100.00
47260;BME280;32999;52.412;4.890;2022-10-16T06:46:27;101117.59;;;14.00;100.00
47260;BME280;32999;52.412;4.890;2022-10-16T06:51:30;101077.88;;;13.82;100.00
47260;BME280;32999;52.412;4.890;2022-10-16T06:56:36;101108.00;;;13.78;100.00
47260;BME280;32999;52.412;4.890;2022-10-16T07:01:39;101052.09;;;13.12;100.00
47260;BME280;32999;52.412;4.890;2022-10-16T07:06:40;101113.09;;;13.59;100.00
47260;BME280;32999;52.412;4.890;2022-10-16T07:11:42;101161.69;;;13.71;100.00
47260;BME280;32999;52.412;4.890;2022-10-16T07:16:46;101188.13;;;13.68;100.00
47260;BME280;32999;52.412;4.890;2022-10-16T07:21:47;101194.59;;;13.80;100.00
47260;BME280;32999;52.412;4.890;2022-10-16T07:26:49;101228.97;;;13.91;100.00
47260;BME280;32999;52.412;4.890;2022-10-16T07:31:52;101122.94;;;13.46;100.00
47260;BME280;32999;52.412;4.890;2022-10-16T07:36:54;101215.41;;;14.12;100.00
47260;BME280;32999;52.412;4.890;2022-10-16T07:41:56;101171.03;;;14.36;100.00
47260;BME280;32999;52.412;4.890;2022-10-16T07:46:59;101181.78;;;14.29;100.00
47260;BME280;32999;52.412;4.890;2022-10-16T07:52:01;101235.47;;;14.64;100.00
47260;BME280;32999;52.412;4.890;2022-10-16T07:57:03;101159.41;;;14.16;100.00
47260;BME280;32999;52.412;4.890;2022-10-16T08:02:07;101167.38;;;14.44;100.00
47260;BME280;32999;52.412;4.890;2022-10-16T08:07:09;101267.22;;;15.15;100.00
47260;BME280;32999;52.412;4.890;2022-10-16T08:12:10;101186.88;;;14.79;100.00
47260;BME280;32999;52.412;4.890;2022-10-16T08:17:15;101279.69;;;15.55;100.00
47260;BME280;32999;52.412;4.890;2022-10-16T08:22:16;101276.53;;;15.85;100.00
47260;BME280;32999;52.412;4.890;2022-10-16T08:27:18;101185.19;;;15.50;100.00
47260;BME280;32999;52.412;4.890;2022-10-16T08:32:21;101304.38;;;16.50;100.00
47260;BME280;32999;52.412;4.890;2022-10-16T08:37:23;101257.88;;;16.54;100.00
47260;BME280;32999;52.412;4.890;2022-10-16T08:42:42;101314.88;;;17.09;100.00
47260;BME280;32999;52.412;4.890;2022-10-16T08:47:54;101320.66;;;17.13;100.00
47260;BME280;32999;52.412;4.890;2022-10-16T08:52:58;101192.91;;;16.56;100.00
47260;BME280;32999;52.412;4.890;2022-10-16T08:58:00;101302.00;;;17.36;100.00
47260;BME280;32999;52.412;4.890;2022-10-16T09:03:13;101255.81;;;17.19;100.00
47260;BME280;32999;52.412;4.890;2022-10-16T09:08:24;101357.34;;;18.08;100.00
47260;BME280;32999;52.412;4.890;2022-10-16T09:13:35;101358.34;;;19.17;100.00
47260;BME280;32999;52.412;4.890;2022-10-16T09:23:54;101302.19;;;18.64;100.00
47260;BME280;32999;52.412;4.890;2022-10-16T09:28:56;101372.34;;;18.84;100.00
47260;BME280;32999;52.412;4.890;2022-10-16T09:34:00;101396.94;;;19.00;100.00
47260;BME280;32999;52.412;4.890;2022-10-16T09:39:11;101299.19;;;17.99;100.00
47260;BME280;32999;52.412;4.890;2022-10-16T09:44:19;101408.91;;;18.13;100.00
47260;BME280;32999;52.412;4.890;2022-10-16T09:49:24;101373.38;;;17.85;100.00
47260;BME280;32999;52.412;4.890;2022-10-16T09:54:28;101311.63;;;17.57;100.00
47260;BME280;32999;52.412;4.890;2022-10-16T09:59:31;101348.50;;;18.01;100.00
47260;BME280;32999;52.412;4.890;2022-10-16T10:04:38;101388.47;;;20.74;100.00
47260;BME280;32999;52.412;4.890;2022-10-16T10:09:44;101285.81;;;22.26;100.00
47260;BME280;32999;52.412;4.890;2022-10-16T10:14:47;101353.75;;;23.03;100.00
47260;BME280;32999;52.412;4.890;2022-10-16T10:19:52;101406.78;;;24.35;100.00
47260;BME280;32999;52.412;4.890;2022-10-16T10:25:14;101408.97;;;24.91;100.00
47260;BME280;32999;52.412;4.890;2022-10-16T10:30:20;101429.66;;;25.54;91.19
47260;BME280;32999;52.412;4.890;2022-10-16T10:35:29;101420.38;;;26.31;79.06
47260;BME280;32999;52.412;4.890;2022-10-16T10:40:42;101427.53;;;25.92;79.03
47260;BME280;32999;52.412;4.890;2022-10-16T10:45:48;101439.47;;;25.35;81.40
47260;BME280;32999;52.412;4.890;2022-10-16T10:50:57;101449.91;;;25.58;80.11
47260;BME280;32999;52.412;4.890;2022-10-16T10:56:08;101452.16;;;24.89;76.78
47260;BME280;32999;52.412;4.890;2022-10-16T11:01:12;101407.00;;;24.81;77.17
47260;BME280;32999;52.412;4.890;2022-10-16T11:06:17;101458.16;;;24.38;82.12
47260;BME280;32999;52.412;4.890;2022-10-16T11:11:25;101478.56;;;24.68;77.13
47260;BME280;32999;52.412;4.890;2022-10-16T11:16:35;101498.41;;;24.16;85.56
47260;BME280;32999;52.412;4.890;2022-10-16T11:21:43;101454.28;;;23.44;87.24
47260;BME280;32999;52.412;4.890;2022-10-16T11:26:51;101460.72;;;22.89;87.59
47260;BME280;32999;52.412;4.890;2022-10-16T11:32:00;101503.53;;;22.55;98.58
47260;BME280;32999;52.412;4.890;2022-10-16T11:37:11;101486.66;;;22.19;100.00
47260;BME280;32999;52.412;4.890;2022-10-16T11:42:21;101504.31;;;22.50;99.06
47260;BME280;32999;52.412;4.890;2022-10-16T11:47:28;101512.53;;;22.72;93.98
47260;BME280;32999;52.412;4.890;2022-10-16T11:52:38;101510.84;;;22.49;89.44
47260;BME280;32999;52.412;4.890;2022-10-16T11:57:47;101467.44;;;22.26;91.64
47260;BME280;32999;52.412;4.890;2022-10-16T12:02:56;101481.13;;;22.14;93.06
47260;BME280;32999;52.412;4.890;2022-10-16T12:08:08;101533.53;;;22.21;89.26
47260;BME280;32999;52.412;4.890;2022-10-16T12:13:34;101523.19;;;21.78;94.81
47260;BME280;32999;52.412;4.890;2022-10-16T12:18:36;101547.78;;;21.55;97.31
47260;BME280;32999;52.412;4.890;2022-10-16T12:23:47;101543.38;;;21.65;100.00
47260;BME280;32999;52.412;4.890;2022-10-16T12:28:52;101550.25;;;21.28;96.51
47260;BME280;32999;52.412;4.890;2022-10-16T12:33:59;101551.44;;;21.60;100.00
47260;BME280;32999;52.412;4.890;2022-10-16T12:39:02;101546.97;;;21.83;98.68
47260;BME280;32999;52.412;4.890;2022-10-16T12:44:24;101548.34;;;21.68;93.30
47260;BME280;32999;52.412;4.890;2022-10-16T12:49:31;101551.41;;;21.32;99.43
47260;BME280;32999;52.412;4.890;2022-10-16T12:54:35;101535.59;;;20.82;92.15
47260;BME280;32999;52.412;4.890;2022-10-16T12:59:43;101550.81;;;21.06;100.00
47260;BME280;32999;52.412;4.890;2022-10-16T13:05:10;101570.69;;;21.07;100.00
47260;BME280;32999;52.412;4.890;2022-10-16T13:10:25;101563.81;;;21.04;88.67
47260;BME280;32999;52.412;4.890;2022-10-16T13:15:40;101587.38;;;20.99;93.81
47260;BME280;32999;52.412;4.890;2022-10-16T13:20:59;101574.22;;;21.08;92.00
47260;BME280;32999;52.412;4.890;2022-10-16T13:26:16;101463.38;;;20.46;92.69
47260;BME280;32999;52.412;4.890;2022-10-16T13:31:23;101532.22;;;20.52;83.74
47260;BME280;32999;52.412;4.890;2022-10-16T13:36:28;101558.41;;;20.58;83.35
47260;BME280;32999;52.412;4.890;2022-10-16T13:41:29;101614.72;;;20.51;92.57
47260;BME280;32999;52.412;4.890;2022-10-16T13:46:32;101493.09;;;19.88;94.35
47260;BME280;32999;52.412;4.890;2022-10-16T13:51:34;101618.41;;;20.26;89.17
47260;BME280;32999;52.412;4.890;2022-10-16T13:56:38;101596.66;;;20.15;90.72
47260;BME280;32999;52.412;4.890;2022-10-16T14:01:43;101622.59;;;20.41;94.45
47260;BME280;32999;52.412;4.890;2022-10-16T14:06:46;101534.59;;;19.77;96.67
47260;BME280;32999;52.412;4.890;2022-10-16T14:11:52;101588.00;;;20.06;93.38
47260;BME280;32999;52.412;4.890;2022-10-16T14:16:56;101622.50;;;20.17;100.00
47260;BME280;32999;52.412;4.890;2022-10-16T14:21:58;101614.22;;;20.12;89.51
47260;BME280;32999;52.412;4.890;2022-10-16T14:27:01;101490.06;;;19.36;100.00
47260;BME280;32999;52.412;4.890;2022-10-16T14:32:05;101611.56;;;19.94;99.49
47260;BME280;32999;52.412;4.890;2022-10-16T14:37:17;101609.91;;;19.93;100.00
47260;BME280;32999;52.412;4.890;2022-10-16T14:42:24;101619.56;;;19.89;98.79
47260;BME280;32999;52.412;4.890;2022-10-16T14:47:27;101606.19;;;19.57;100.00
47260;BME280;32999;52.412;4.890;2022-10-16T14:52:29;101618.69;;;19.58;100.00
47260;BME280;32999;52.412;4.890;2022-10-16T14:57:33;101635.88;;;19.52;100.00
47260;BME280;32999;52.412;4.890;2022-10-16T15:02:37;101627.16;;;19.50;100.00
47260;BME280;32999;52.412;4.890;2022-10-16T15:07:39;101516.19;;;18.51;100.00
47260;BME280;32999;52.412;4.890;2022-10-16T15:12:41;101538.69;;;18.76;100.00
47260;BME280;32999;52.412;4.890;2022-10-16T15:17:44;101549.84;;;18.61;100.00
47260;BME280;32999;52.412;4.890;2022-10-16T15:22:46;101628.44;;;19.05;100.00
47260;BME280;32999;52.412;4.890;2022-10-16T15:27:48;101591.06;;;18.88;100.00
47260;BME280;32999;52.412;4.890;2022-10-16T15:32:51;101578.41;;;18.82;100.00
47260;BME280;32999;52.412;4.890;2022-10-16T15:37:53;101545.00;;;18.70;100.00
47260;BME280;32999;52.412;4.890;2022-10-16T15:42:55;101554.44;;;18.61;100.00
47260;BME280;32999;52.412;4.890;2022-10-16T15:47:58;101621.78;;;19.00;100.00
47260;BME280;32999;52.412;4.890;2022-10-16T15:52:59;101621.19;;;18.98;100.00
47260;BME280;32999;52.412;4.890;2022-10-16T15:58:01;101581.69;;;18.66;100.00
47260;BME280;32999;52.412;4.890;2022-10-16T16:03:05;101591.69;;;18.59;100.00
47260;BME280;32999;52.412;4.890;2022-10-16T16:08:06;101566.19;;;18.23;100.00
47260;BME280;32999;52.412;4.890;2022-10-16T16:13:08;101530.19;;;17.91;100.00
47260;BME280;32999;52.412;4.890;2022-10-16T16:18:11;101517.00;;;17.70;100.00
47260;BME280;32999;52.412;4.890;2022-10-16T16:23:13;101644.38;;;18.31;100.00
47260;BME280;32999;52.412;4.890;2022-10-16T16:28:15;101630.34;;;18.10;100.00
47260;BME280;32999;52.412;4.890;2022-10-16T16:33:18;101640.41;;;17.96;100.00
47260;BME280;32999;52.412;4.890;2022-10-16T16:38:20;101581.75;;;17.39;100.00
47260;BME280;32999;52.412;4.890;2022-10-16T16:43:23;101570.41;;;17.17;100.00
47260;BME280;32999;52.412;4.890;2022-10-16T16:48:27;101566.72;;;17.05;100.00
47260;BME280;32999;52.412;4.890;2022-10-16T16:53:29;101644.31;;;17.42;100.00
47260;BME280;32999;52.412;4.890;2022-10-16T16:58:31;101649.72;;;17.42;100.00
47260;BME280;32999;52.412;4.890;2022-10-16T17:03:36;101561.09;;;16.60;100.00
47260;BME280;32999;52.412;4.890;2022-10-16T17:08:38;101587.72;;;16.70;100.00
47260;BME280;32999;52.412;4.890;2022-10-16T17:13:40;101615.13;;;16.66;100.00
47260;BME280;32999;52.412;4.890;2022-10-16T17:18:43;101636.31;;;16.76;100.00
47260;BME280;32999;52.412;4.890;2022-10-16T17:23:45;101661.84;;;16.87;100.00
47260;BME280;32999;52.412;4.890;2022-10-16T17:28:50;101681.78;;;16.92;100.00
47260;BME280;32999;52.412;4.890;2022-10-16T17:33:54;101719.38;;;16.87;100.00
47260;BME280;32999;52.412;4.890;2022-10-16T17:38:57;101707.13;;;16.85;100.00
47260;BME280;32999;52.412;4.890;2022-10-16T17:43:59;101701.09;;;16.76;100.00
47260;BME280;32999;52.412;4.890;2022-10-16T17:49:03;101692.38;;;16.74;100.00
47260;BME280;32999;52.412;4.890;2022-10-16T17:54:05;101662.38;;;16.36;100.00
47260;BME280;32999;52.412;4.890;2022-10-16T17:59:08;101706.25;;;16.58;100.00
47260;BME280;32999;52.412;4.890;2022-10-16T18:04:14;101697.72;;;16.61;100.00
47260;BME280;32999;52.412;4.890;2022-10-16T18:09:17;101621.44;;;16.13;100.00
47260;BME280;32999;52.412;4.890;2022-10-16T18:14:20;101670.06;;;16.32;100.00
47260;BME280;32999;52.412;4.890;2022-10-16T18:19:23;101714.53;;;16.63;100.00
47260;BME280;32999;52.412;4.890;2022-10-16T18:24:25;101716.59;;;16.61;100.00
47260;BME280;32999;52.412;4.890;2022-10-16T18:29:27;101695.59;;;16.37;100.00
47260;BME280;32999;52.412;4.890;2022-10-16T18:34:32;101749.81;;;16.61;100.00
47260;BME280;32999;52.412;4.890;2022-10-16T18:39:36;101680.44;;;16.36;100.00
47260;BME280;32999;52.412;4.890;2022-10-16T18:44:38;101742.56;;;16.62;100.00
47260;BME280;32999;52.412;4.890;2022-10-16T18:49:41;101740.25;;;16.59;100.00
47260;BME280;32999;52.412;4.890;2022-10-16T18:54:43;101677.53;;;16.30;100.00
47260;BME280;32999;52.412;4.890;2022-10-16T18:59:45;101594.84;;;15.83;100.00
47260;BME280;32999;52.412;4.890;2022-10-16T19:04:48;101646.13;;;16.03;100.00
47260;BME280;32999;52.412;4.890;2022-10-16T19:09:50;101730.69;;;16.43;100.00
47260;BME280;32999;52.412;4.890;2022-10-16T19:14:51;101741.28;;;16.45;100.00
47260;BME280;32999;52.412;4.890;2022-10-16T19:19:54;101733.56;;;16.28;100.00
47260;BME280;32999;52.412;4.890;2022-10-16T19:24:56;101687.78;;;15.94;100.00
47260;BME280;32999;52.412;4.890;2022-10-16T19:29:58;101645.13;;;15.63;100.00
47260;BME280;32999;52.412;4.890;2022-10-16T19:35:01;101679.44;;;15.89;100.00
47260;BME280;32999;52.412;4.890;2022-10-16T19:40:03;101734.53;;;16.14;100.00
47260;BME280;32999;52.412;4.890;2022-10-16T19:45:06;101727.66;;;16.05;100.00
47260;BME280;32999;52.412;4.890;2022-10-16T19:50:09;101712.50;;;16.04;100.00
47260;BME280;32999;52.412;4.890;2022-10-16T19:55:11;101589.00;;;15.32;100.00
47260;BME280;32999;52.412;4.890;2022-10-16T20:00:13;101675.56;;;15.98;100.00
47260;BME280;32999;52.412;4.890;2022-10-16T20:05:18;101681.78;;;15.98;100.00
47260;BME280;32999;52.412;4.890;2022-10-16T20:10:19;101657.06;;;15.88;100.00
47260;BME280;32999;52.412;4.890;2022-10-16T20:15:21;101591.53;;;15.06;100.00
47260;BME280;32999;52.412;4.890;2022-10-16T20:20:26;101613.97;;;15.19;100.00
47260;BME280;32999;52.412;4.890;2022-10-16T20:25:28;101681.22;;;15.34;100.00
47260;BME280;32999;52.412;4.890;2022-10-16T20:30:32;101533.50;;;14.41;100.00
47260;BME280;32999;52.412;4.890;2022-10-16T20:35:37;101712.25;;;15.30;100.00
47260;BME280;32999;52.412;4.890;2022-10-16T20:40:41;101696.53;;;15.34;100.00
47260;BME280;32999;52.412;4.890;2022-10-16T20:45:44;101726.94;;;15.55;100.00
47260;BME280;32999;52.412;4.890;2022-10-16T20:50:47;101657.41;;;15.10;100.00
47260;BME280;32999;52.412;4.890;2022-10-16T20:55:48;101709.19;;;15.68;100.00
47260;BME280;32999;52.412;4.890;2022-10-16T21:00:50;101591.81;;;14.89;100.00
47260;BME280;32999;52.412;4.890;2022-10-16T21:05:53;101572.06;;;15.04;100.00
47260;BME280;32999;52.412;4.890;2022-10-16T21:10:55;101718.50;;;15.99;100.00
47260;BME280;32999;52.412;4.890;2022-10-16T21:15:57;101693.38;;;15.92;100.00
47260;BME280;32999;52.412;4.890;2022-10-16T21:21:00;101609.66;;;15.25;100.00
47260;BME280;32999;52.412;4.890;2022-10-16T21:26:01;101554.31;;;14.53;100.00
47260;BME280;32999;52.412;4.890;2022-10-16T21:31:10;101665.63;;;15.57;100.00
47260;BME280;32999;52.412;4.890;2022-10-16T21:36:15;101608.31;;;15.42;100.00
47260;BME280;32999;52.412;4.890;2022-10-16T21:41:20;101630.25;;;15.74;100.00
47260;BME280;32999;52.412;4.890;2022-10-16T21:46:24;101627.72;;;15.59;100.00
47260;BME280;32999;52.412;4.890;2022-10-16T21:51:28;101690.00;;;15.84;100.00
47260;BME280;32999;52.412;4.890;2022-10-16T21:56:30;101663.19;;;15.69;100.00
47260;BME280;32999;52.412;4.890;2022-10-16T22:01:32;101630.41;;;15.65;100.00
47260;BME280;32999;52.412;4.890;2022-10-16T22:06:38;101582.53;;;15.26;100.00
47260;BME280;32999;52.412;4.890;2022-10-16T22:11:42;101663.47;;;15.81;100.00
47260;BME280;32999;52.412;4.890;2022-10-16T22:16:44;101586.91;;;15.27;100.00
47260;BME280;32999;52.412;4.890;2022-10-16T22:21:48;101585.47;;;15.31;100.00
47260;BME280;32999;52.412;4.890;2022-10-16T22:26:51;101581.16;;;15.44;100.00
47260;BME280;32999;52.412;4.890;2022-10-16T22:31:52;101653.31;;;15.83;100.00
47260;BME280;32999;52.412;4.890;2022-10-16T22:36:55;101667.63;;;15.83;100.00
47260;BME280;32999;52.412;4.890;2022-10-16T22:41:57;101664.25;;;15.75;100.00
47260;BME280;32999;52.412;4.890;2022-10-16T22:46:59;101554.72;;;15.19;100.00
47260;BME280;32999;52.412;4.890;2022-10-16T22:52:02;101561.44;;;15.37;100.00
47260;BME280;32999;52.412;4.890;2022-10-16T22:57:04;101593.38;;;15.40;100.00
47260;BME280;32999;52.412;4.890;2022-10-16T23:02:05;101574.47;;;15.26;100.00
47260;BME280;32999;52.412;4.890;2022-10-16T23:07:08;101654.72;;;15.72;100.00
47260;BME280;32999;52.412;4.890;2022-10-16T23:12:10;101663.47;;;15.81;100.00
47260;BME280;32999;52.412;4.890;2022-10-16T23:17:12;101668.84;;;15.81;100.00
47260;BME280;32999;52.412;4.890;2022-10-16T23:22:15;101596.09;;;15.46;100.00
47260;BME280;32999;52.412;4.890;2022-10-16T23:27:16;101645.78;;;15.72;100.00
47260;BME280;32999;52.412;4.890;2022-10-16T23:32:18;101670.69;;;15.74;100.00
47260;BME280;32999;52.412;4.890;2022-10-16T23:37:21;101563.00;;;15.18;100.00
47260;BME280;32999;52.412;4.890;2022-10-16T23:42:23;101645.63;;;15.86;100.00
47260;BME280;32999;52.412;4.890;2022-10-16T23:47:24;101636.28;;;15.76;100.00
47260;BME280;32999;52.412;4.890;2022-10-16T23:52:28;101544.41;;;15.23;100.00
47260;BME280;32999;52.412;4.890;2022-10-16T23:57:29;101623.84;;;15.75;100.00
